Dades meteomassalio
Diari Summary for Gener 25, 2017 Units:  English    Metric   Both
« Previous Day
Next Day »
Diari Semanal Mensual Anual Personalitzat
  Maxima: Minima: Mijana:
Temperatura: 48.6 °F 29.1 °F 40.8 °F
Rosada: 31.8 °F 25.3 °F 28.2 °F
Humitat: 88 % 44 % 62 %
Velocitat del vent: 18.4 mph 0 mph 6.4 mph
Racha vent: 18.4 mph - -
Vent:- - WNW
Pressio: 30.2 in 30.1 in -
Pluja: 0 in    
Historical Graphs
 
 
Tabular Data for Gener 25, 2017
Time Temperature Dew Point Pressure Wind Wind Speed Wind Gust Humidity Rainfall Rate (Hourly) solar Conditions
00:02 43.5 °F 31.8 °F 30.2 in West 8 mph 8 mph 63 % 0 in 0.0 W/m2 CLR
00:07 43.7 °F 31.5 °F 30.2 in West 18.4 mph 18.4 mph 62 % 0 in 0.0 W/m2 CLR
00:12 43.7 °F 31.5 °F 30.2 in West 16.1 mph 16.1 mph 62 % 0 in 0.0 W/m2 CLR
00:17 43.5 °F 31.3 °F 30.2 in West 15 mph 15 mph 62 % 0 in 0.0 W/m2 CLR
00:22 43.3 °F 31.3 °F 30.2 in West 11.5 mph 11.5 mph 62 % 0 in 0.0 W/m2 CLR
00:28 43.3 °F 31.3 °F 30.2 in West 10.4 mph 10.4 mph 62 % 0 in 0.0 W/m2 CLR
00:33 43.2 °F 30.9 °F 30.2 in West 13.8 mph 13.8 mph 62 % 0 in 0.0 W/m2 CLR
00:38 43 °F 30.9 °F 30.2 in WNW 12 mph 12 mph 62 % 0 in 0.0 W/m2 CLR
00:43 43 °F 30.7 °F 30.2 in WNW 13 mph 13 mph 62 % 0 in 0.0 W/m2 CLR
00:48 43.2 °F 30.9 °F 30.2 in WNW 15 mph 15 mph 62 % 0 in 0.0 W/m2 CLR
00:53 43.2 °F 31.1 °F 30.2 in West 17.3 mph 17.3 mph 62 % 0 in 0.0 W/m2 CLR
00:58 43.2 °F 30.6 °F 30.2 in West 15 mph 15 mph 61 % 0 in 0.0 W/m2 CLR
01:03 43.2 °F 30.6 °F 30.2 in West 12 mph 12 mph 61 % 0 in 0.0 W/m2 CLR
01:08 43.2 °F 30 °F 30.2 in West 15 mph 15 mph 60 % 0 in 0.0 W/m2 CLR
01:13 43.2 °F 30 °F 30.2 in West 18.4 mph 18.4 mph 60 % 0 in 0.0 W/m2 CLR
01:18 43 °F 29.7 °F 30.2 in West 12.7 mph 12.7 mph 59 % 0 in 0.0 W/m2 CLR
01:23 43 °F 29.5 °F 30.2 in West 16.1 mph 16.1 mph 59 % 0 in 0.0 W/m2 CLR
01:28 43.2 °F 29.3 °F 30.2 in West 12.7 mph 12.7 mph 58 % 0 in 0.0 W/m2 CLR
01:33 43 °F 29.1 °F 30.2 in West 13 mph 13 mph 58 % 0 in 0.0 W/m2 CLR
01:38 43 °F 29.1 °F 30.2 in West 13.8 mph 13.8 mph 58 % 0 in 0.0 W/m2 CLR
01:43 43 °F 29.1 °F 30.2 in West 17.3 mph 17.3 mph 58 % 0 in 0.0 W/m2 CLR
01:48 43 °F 29.1 °F 30.2 in West 12.7 mph 12.7 mph 58 % 0 in 0.0 W/m2 CLR
01:53 43 °F 29.1 °F 30.2 in West 12.7 mph 12.7 mph 58 % 0 in 0.0 W/m2 CLR
01:58 42.6 °F 29.3 °F 30.2 in WNW 11.5 mph 11.5 mph 59 % 0 in 0.0 W/m2 CLR
02:03 42.3 °F 28.9 °F 30.2 in WNW 11.5 mph 11.5 mph 59 % 0 in 0.0 W/m2 CLR
02:08 42.3 °F 28.9 °F 30.2 in WNW 10.4 mph 10.4 mph 59 % 0 in 0.0 W/m2 CLR
02:13 42.1 °F 28.8 °F 30.2 in WNW 11.5 mph 11.5 mph 59 % 0 in 0.0 W/m2 CLR
02:18 42.1 °F 28.4 °F 30.2 in West 10.4 mph 10.4 mph 58 % 0 in 0.0 W/m2 CLR
02:23 42.1 °F 28.4 °F 30.2 in West 4.6 mph 4.6 mph 58 % 0 in 0.0 W/m2 CLR
02:28 42.1 °F 28.2 °F 30.2 in WSW 1 mph   58 % 0 in 0.0 W/m2 CLR
02:33 41.9 °F 27.9 °F 30.2 in West 3.5 mph   57 % 0 in 0.0 W/m2 CLR
02:38 41.9 °F 27.9 °F 30.2 in Calm     57 % 0 in 0.0 W/m2 CLR
02:43 41.7 °F 27.7 °F 30.2 in Calm     57 % 0 in 0.0 W/m2 CLR
02:49 41.7 °F 27.7 °F 30.2 in Calm     57 % 0 in 0.0 W/m2 CLR
02:54 41.5 °F 27.9 °F 30.2 in Calm     58 % 0 in 0.0 W/m2 CLR
02:59 41.4 °F 27.7 °F 30.2 in WNW 3 mph 3 mph 58 % 0 in 0.0 W/m2 CLR
03:04 41.2 °F 27.3 °F 30.2 in West 5.8 mph 5.8 mph 58 % 0 in 0.0 W/m2 CLR
03:09 41.2 °F 27.9 °F 30.2 in West 3.5 mph 3.5 mph 59 % 0 in 0.0 W/m2 CLR
03:14 41 °F 27.9 °F 30.2 in Calm     59 % 0 in 0.0 W/m2 CLR
03:19 40.8 °F 27.7 °F 30.2 in Calm     59 % 0 in 0.0 W/m2 CLR
03:24 40.6 °F 27.9 °F 30.2 in Calm     60 % 0 in 0.0 W/m2 CLR
03:29 40.5 °F 27.7 °F 30.2 in Calm     60 % 0 in 0.0 W/m2 CLR
03:34 40.5 °F 27.7 °F 30.2 in Calm     60 % 0 in 0.0 W/m2 CLR
03:39 40.3 °F 27.9 °F 30.2 in Calm     61 % 0 in 0.0 W/m2 CLR
03:44 39.9 °F 27.9 °F 30.2 in Calm     62 % 0 in 0.0 W/m2 CLR
03:49 39.6 °F 27.5 °F 30.2 in Calm     62 % 0 in 0.0 W/m2 CLR
03:54 39.4 °F 27.7 °F 30.2 in Calm     63 % 0 in 0.0 W/m2 CLR
03:59 39.2 °F 27.7 °F 30.2 in Calm     63 % 0 in 0.0 W/m2 CLR
04:04 39.4 °F 27.7 °F 30.2 in Calm     63 % 0 in 0.0 W/m2 CLR
04:09 39.2 °F 27.3 °F 30.2 in Calm     62 % 0 in 0.0 W/m2 CLR
04:14 39 °F 27.5 °F 30.2 in Calm     63 % 0 in 0.0 W/m2 CLR
04:19 38.7 °F 27.5 °F 30.2 in Calm     64 % 0 in 0.0 W/m2 CLR
04:24 38.5 °F 27.3 °F 30.2 in Calm     64 % 0 in 0.0 W/m2 CLR
04:29 38.3 °F 27.1 °F 30.2 in Calm     64 % 0 in 0.0 W/m2 CLR
04:34 38.1 °F 27.3 °F 30.2 in Calm     65 % 0 in 0.0 W/m2 CLR
04:39 37.8 °F 27.1 °F 30.2 in Calm     65 % 0 in 0.0 W/m2 CLR
04:44 37.9 °F 27.3 °F 30.2 in Calm     65 % 0 in 0.0 W/m2 CLR
04:49 38.8 °F 27 °F 30.2 in WNW 9.2 mph 9.2 mph 62 % 0 in 0.0 W/m2 CLR
04:54 39.9 °F 26.8 °F 30.2 in WNW 11.5 mph 11.5 mph 59 % 0 in 0.0 W/m2 CLR
04:59 40.5 °F 26.8 °F 30.2 in WNW 10 mph 10 mph 58 % 0 in 0.0 W/m2 CLR
05:04 40.5 °F 26.4 °F 30.2 in WNW 13.8 mph 13.8 mph 57 % 0 in 0.0 W/m2 CLR
05:09 40.8 °F 26.2 °F 30.2 in NW 17.3 mph 17.3 mph 56 % 0 in 0.0 W/m2 CLR
05:14 40.8 °F 26.4 °F 30.2 in NW 18.4 mph 18.4 mph 56 % 0 in 0.0 W/m2 CLR
05:20 41 °F 26.1 °F 30.2 in WNW 15 mph 15 mph 55 % 0 in 0.0 W/m2 CLR
05:25 41 °F 26.1 °F 30.2 in WNW 12.7 mph 12.7 mph 55 % 0 in 0.0 W/m2 CLR
05:30 41 °F 26.1 °F 30.2 in WNW 10.4 mph 10.4 mph 55 % 0 in 0.0 W/m2 CLR
05:35 40.8 °F 25.9 °F 30.2 in WNW 6.9 mph 6.9 mph 55 % 0 in 0.0 W/m2 CLR
05:40 40.6 °F 26.1 °F 30.2 in West 6.9 mph 6.9 mph 56 % 0 in 0.0 W/m2 CLR
05:45 40.5 °F 25.9 °F 30.2 in West 6.9 mph 6.9 mph 56 % 0 in 0.0 W/m2 CLR
05:50 40.3 °F 25.9 °F 30.2 in West 9.2 mph 9.2 mph 56 % 0 in 0.0 W/m2 CLR
05:55 40.1 °F 26.1 °F 30.2 in WNW 5.8 mph 5.8 mph 57 % 0 in 0.0 W/m2 CLR
06:00 39.9 °F 25.9 °F 30.2 in NW 6.9 mph 6.9 mph 57 % 0 in 0.0 W/m2 CLR
06:05 39.9 °F 25.9 °F 30.2 in NW 6.9 mph 6.9 mph 57 % 0 in 0.0 W/m2 CLR
06:10 39.9 °F 25.9 °F 30.2 in NW 11.5 mph 11.5 mph 57 % 0 in 0.0 W/m2 CLR
06:15 39.9 °F 25.9 °F 30.2 in NW 7 mph 7 mph 57 % 0 in 0.0 W/m2 CLR
06:20 39.6 °F 26.1 °F 30.2 in NW 10 mph 10 mph 58 % 0 in 0.0 W/m2 CLR
06:25 39.4 °F 25.9 °F 30.2 in WNW 13.8 mph 13.8 mph 58 % 0 in 0.0 W/m2 CLR
06:30 39.6 °F 25.5 °F 30.2 in WNW 11.5 mph 11.5 mph 57 % 0 in 0.0 W/m2 CLR
06:35 39.7 °F 25.7 °F 30.2 in WNW 6.9 mph 6.9 mph 57 % 0 in 0.0 W/m2 CLR
06:40 39.6 °F 25.9 °F 30.2 in WNW 4.6 mph 4.6 mph 58 % 0 in 0.0 W/m2 CLR
06:45 39.4 °F 25.7 °F 30.2 in WNW 6.9 mph 6.9 mph 58 % 0 in 0.0 W/m2 CLR
06:50 39 °F 26.1 °F 30.2 in WNW 9 mph 9 mph 59 % 0 in 0.0 W/m2 CLR
06:55 39 °F 26.1 °F 30.2 in WNW 10.4 mph 10.4 mph 59 % 0 in 0.0 W/m2 CLR
07:00 39.4 °F 25.7 °F 30.2 in WNW 9 mph 9 mph 58 % 0 in 0.0 W/m2 CLR
07:05 39.6 °F 25.9 °F 30.2 in West 10.4 mph 10.4 mph 58 % 0 in 0.0 W/m2 CLR
07:10 39.6 °F 25.5 °F 30.2 in West 9.2 mph 9.2 mph 57 % 0 in 0.0 W/m2 CLR
07:15 39.4 °F 25.3 °F 30.2 in West 10.4 mph 10.4 mph 57 % 0 in 0.0 W/m2 CLR
07:20 39.4 °F 25.9 °F 30.2 in West 10.4 mph 10.4 mph 58 % 0 in 0.0 W/m2 CLR
07:25 39.4 °F 25.7 °F 30.2 in West 11.5 mph 11.5 mph 58 % 0 in 0.0 W/m2 CLR
07:30 39.2 °F 25.5 °F 30.2 in WNW 12.7 mph 12.7 mph 58 % 0 in 0.0 W/m2 CLR
07:35 39.2 °F 26.1 °F 30.2 in West 11.5 mph 11.5 mph 59 % 0 in 0.0 W/m2 CLR
07:40 39 °F 25.9 °F 30.2 in West 13.8 mph 13.8 mph 59 % 0 in 0.0 W/m2 CLR
07:45 39 °F 26.2 °F 30.2 in West 17.3 mph 17.3 mph 60 % 0 in 0.0 W/m2 CLR
07:50 38.8 °F 26.1 °F 30.2 in West 11.5 mph 11.5 mph 60 % 0 in 0.0 W/m2 CLR
07:55 38.7 °F 26.4 °F 30.2 in West 12.7 mph 12.7 mph 61 % 0 in 0.0 W/m2 CLR
08:00 38.7 °F 26.8 °F 30.2 in West 12.7 mph 12.7 mph 62 % 0 in 0.0 W/m2 CLR
08:05 38.8 °F 26.4 °F 30.2 in West 16.1 mph 16.1 mph 61 % 0 in 0.0 W/m2 CLR
08:10 38.8 °F 26.6 °F 30.2 in WNW 13.8 mph 13.8 mph 61 % 0 in 0.0 W/m2 OVC
08:15 38.8 °F 26.6 °F 30.2 in WNW 11.5 mph 11.5 mph 61 % 0 in 0.0 W/m2 OVC
08:20 38.7 °F 26.4 °F 30.2 in West 11.5 mph 11.5 mph 61 % 0 in 0.0 W/m2 OVC
08:25 38.7 °F 26.4 °F 30.2 in WNW 11.5 mph 11.5 mph 61 % 0 in 5.0 W/m2 BKN
08:30 38.5 °F 26.6 °F 30.2 in WNW 14 mph 14 mph 62 % 0 in 9.0 W/m2 BKN
08:35 38.7 °F 26.8 °F 30.2 in WNW 11 mph 11 mph 62 % 0 in 11.0 W/m2 BKN
08:40 38.8 °F 26.2 °F 30.2 in WNW 10.4 mph 10.4 mph 60 % 0 in 14.0 W/m2 BKN
08:45 39 °F 26.4 °F 30.2 in West 10.4 mph 10.4 mph 60 % 0 in 18.0 W/m2 BKN
08:50 39.4 °F 26.2 °F 30.2 in West 9.2 mph 9.2 mph 59 % 0 in 23.0 W/m2 BKN
08:55 39.4 °F 26.2 °F 30.2 in West 11.5 mph 11.5 mph 59 % 0 in 33.0 W/m2 BKN
09:00 39.6 °F 26.4 °F 30.2 in West 11 mph 11 mph 59 % 0 in 40.0 W/m2 BKN
09:05 39.7 °F 26.1 °F 30.2 in WNW 9 mph 9 mph 58 % 0 in 56.0 W/m2 BKN
09:10 39.7 °F 26.2 °F 30.2 in West 10.4 mph 10.4 mph 58 % 0 in 65.0 W/m2 BKN
09:15 39.9 °F 26.2 °F 30.2 in WNW 15 mph 15 mph 58 % 0 in 69.0 W/m2 BKN
09:20 40.1 °F 26.4 °F 30.2 in West 8.1 mph 8.1 mph 58 % 0 in 97.0 W/m2 BKN
09:25 40.3 °F 26.6 °F 30.2 in West 8.1 mph 8.1 mph 58 % 0 in 109.0 W/m2 BKN
09:30 40.3 °F 26.8 °F 30.2 in WNW 9.2 mph 9.2 mph 58 % 0 in 125.0 W/m2 BKN
09:31 40.3 °F 26.8 °F 30.2 in WNW 9.2 mph 9.2 mph 58 % 0 in 127.0 W/m2 BKN
09:36 40.5 °F 26.8 °F 30.2 in WNW 11.5 mph 11.5 mph 58 % 0 in 141.0 W/m2 BKN
09:41 40.3 °F 26.8 °F 30.2 in WNW 15 mph 15 mph 58 % 0 in 100.0 W/m2 SCT
09:46 40.5 °F 27 °F 30.2 in WNW 11.5 mph 11.5 mph 58 % 0 in 169.0 W/m2 SCT
09:51 40.6 °F 27 °F 30.2 in WNW 12.7 mph 12.7 mph 58 % 0 in 134.0 W/m2 SCT
09:56 40.5 °F 27 °F 30.2 in WNW 9.2 mph 9.2 mph 58 % 0 in 171.0 W/m2 BKN
10:01 40.6 °F 27.3 °F 30.2 in NW 12.7 mph 12.7 mph 59 % 0 in 223.0 W/m2 BKN
10:06 40.6 °F 27.9 °F 30.2 in WNW 11.5 mph 11.5 mph 60 % 0 in 237.0 W/m2 SCT
10:11 40.6 °F 27.9 °F 30.2 in NW 11.5 mph 11.5 mph 60 % 0 in 251.0 W/m2 SCT
10:16 40.6 °F 27.9 °F 30.2 in NW 11.5 mph 11.5 mph 60 % 0 in 267.0 W/m2 SCT
10:21 40.8 °F 27.7 °F 30.2 in WNW 12.7 mph 12.7 mph 59 % 0 in 279.0 W/m2 SCT
10:26 41 °F 28.2 °F 30.2 in WNW 10 mph 10 mph 60 % 0 in 290.0 W/m2 SCT
10:31 41.2 °F 27.9 °F 30.2 in WNW 6.9 mph 6.9 mph 59 % 0 in 302.0 W/m2 SCT
10:36 41.4 °F 28 °F 30.2 in WNW 10.4 mph 10.4 mph 59 % 0 in 313.0 W/m2 SCT
10:41 41.5 °F 28.8 °F 30.2 in NW 6.9 mph 6.9 mph 60 % 0 in 325.0 W/m2 FEW
10:46 41.7 °F 28.4 °F 30.2 in NW 10.4 mph 10.4 mph 59 % 0 in 332.0 W/m2 FEW
10:51 41.5 °F 28.8 °F 30.2 in NW 8.1 mph 8.1 mph 60 % 0 in 345.0 W/m2 CLR
10:56 41.7 °F 28.9 °F 30.2 in NW 6 mph 6 mph 60 % 0 in 355.0 W/m2 CLR
11:01 42.1 °F 29.1 °F 30.2 in NW 11.5 mph 11.5 mph 60 % 0 in 367.0 W/m2 CLR
11:06 42.1 °F 28.8 °F 30.2 in NW 6.9 mph 6.9 mph 59 % 0 in 376.0 W/m2 CLR
11:11 42.4 °F 29.7 °F 30.2 in NW 8.1 mph 8.1 mph 60 % 0 in 383.0 W/m2 CLR
11:16 42.6 °F 28.8 °F 30.2 in NW 11.5 mph 11.5 mph 58 % 0 in 392.0 W/m2 CLR
11:21 42.8 °F 28.9 °F 30.2 in NW 9.2 mph 9.2 mph 58 % 0 in 404.0 W/m2 CLR
11:26 43.2 °F 29.3 °F 30.2 in NW 8.1 mph 8.1 mph 58 % 0 in 413.0 W/m2 CLR
11:31 43.5 °F 28.8 °F 30.2 in West 10 mph 10 mph 56 % 0 in 420.0 W/m2 CLR
11:36 43.7 °F 29.8 °F 30.2 in WNW 8.1 mph 8.1 mph 58 % 0 in 427.0 W/m2 CLR
11:41 43.9 °F 28.2 °F 30.2 in WNW 11 mph 11 mph 54 % 0 in 434.0 W/m2 CLR
11:46 43.9 °F 28.2 °F 30.2 in WNW 15 mph 15 mph 54 % 0 in 441.0 W/m2 CLR
11:51 43.7 °F 27.7 °F 30.2 in West 13.8 mph 13.8 mph 53 % 0 in 448.0 W/m2 CLR
11:56 43.9 °F 28.2 °F 30.2 in West 6.9 mph 6.9 mph 54 % 0 in 454.0 W/m2 CLR
12:01 44.1 °F 29.5 °F 30.2 in NW 11.5 mph 11.5 mph 56 % 0 in 457.0 W/m2 CLR
12:06 43.9 °F 28.8 °F 30.2 in NW 11.5 mph 11.5 mph 55 % 0 in 466.0 W/m2 CLR
12:14 44.2 °F 29.8 °F 30.2 in NW 12 mph 12 mph 57 % 0 in 473.0 W/m2 CLR
12:19 44.1 °F 29.3 °F 30.2 in WNW 11.5 mph 11.5 mph 56 % 0 in 475.0 W/m2 OVC
12:24 44.1 °F 29.7 °F 30.2 in NW 9.2 mph 9.2 mph 57 % 0 in 476.0 W/m2 CLR
12:29 44.2 °F 30 °F 30.2 in WNW 11.5 mph 11.5 mph 57 % 0 in 478.0 W/m2 OVC
12:34 44.2 °F 29.7 °F 30.2 in NW 11.5 mph 11.5 mph 56 % 0 in 478.0 W/m2 OVC
12:39 44.2 °F 29.7 °F 30.2 in NW 11.5 mph 11.5 mph 56 % 0 in 478.0 W/m2 OVC
12:44 44.8 °F 29.5 °F 30.2 in NW 8 mph 8 mph 55 % 0 in 492.0 W/m2 CLR
12:49 45 °F 29.8 °F 30.2 in NNW 8.1 mph 8.1 mph 55 % 0 in 494.0 W/m2 CLR
12:54 45.1 °F 29.5 °F 30.2 in NW 5 mph 5 mph 54 % 0 in 492.0 W/m2 CLR
12:59 45.5 °F 30.4 °F 30.1 in NW 16.1 mph 16.1 mph 55 % 0 in 497.0 W/m2 CLR
13:04 45.7 °F 30.4 °F 30.1 in NNW 12.7 mph 12.7 mph 55 % 0 in 496.0 W/m2 CLR
13:09 45.7 °F 30.4 °F 30.1 in NNW 8.1 mph 8.1 mph 55 % 0 in 499.0 W/m2 CLR
13:14 45.9 °F 30.2 °F 30.1 in NW 8 mph 8 mph 54 % 0 in 497.0 W/m2 CLR
13:19 46 °F 29.8 °F 30.1 in NW 9.2 mph 9.2 mph 53 % 0 in 497.0 W/m2 CLR
13:24 46 °F 30.4 °F 30.1 in Calm     54 % 0 in 499.0 W/m2 CLR
13:29 46.4 °F 30.2 °F 30.1 in Calm     53 % 0 in 499.0 W/m2 CLR
13:34 46.8 °F 30.9 °F 30.1 in NW 8.1 mph 8.1 mph 54 % 0 in 503.0 W/m2 CLR
13:39 47.3 °F 30.9 °F 30.1 in WNW 9.2 mph 9.2 mph 53 % 0 in 497.0 W/m2 CLR
13:45 47.3 °F 30.6 °F 30.1 in NW 6.9 mph 6.9 mph 52 % 0 in 496.0 W/m2 CLR
13:50 47.1 °F 30.4 °F 30.1 in NW 9.2 mph 9.3 mph 52 % 0 in 490.0 W/m2 CLR
13:55 47.1 °F 31.6 °F 30.1 in NNW 9 mph 9 mph 55 % 0 in 490.0 W/m2 CLR
14:00 46.9 °F 31.6 °F 30.1 in NW 5.8 mph   55 % 0 in 482.0 W/m2 CLR
14:05 47.5 °F 31.6 °F 30.1 in Calm     54 % 0 in 478.0 W/m2 CLR
14:10 47.5 °F 30.6 °F 30.1 in NNW 10.4 mph 10.4 mph 52 % 0 in 475.0 W/m2 CLR
14:15 47.5 °F 30.6 °F 30.1 in NW 11.5 mph 11.5 mph 52 % 0 in 468.0 W/m2 CLR
14:20 47.7 °F 30.9 °F 30.1 in NW 5.8 mph   52 % 0 in 464.0 W/m2 CLR
14:25 48 °F 31.3 °F 30.1 in NW 10.4 mph 10.4 mph 52 % 0 in 457.0 W/m2 CLR
14:30 48 °F 30.7 °F 30.1 in NW 9.2 mph 9.2 mph 51 % 0 in 454.0 W/m2 CLR
14:35 47.8 °F 31.5 °F 30.1 in NNW 10.4 mph 10.4 mph 53 % 0 in 450.0 W/m2 CLR
14:40 47.8 °F 31.5 °F 30.1 in NNW 11.5 mph 11.5 mph 53 % 0 in 448.0 W/m2 CLR
14:45 47.7 °F 30.7 °F 30.1 in NW 8.1 mph 8.1 mph 52 % 0 in 441.0 W/m2 CLR
14:50 47.7 °F 30.7 °F 30.1 in NW 8.1 mph 8.1 mph 52 % 0 in 425.0 W/m2 CLR
14:55 47.8 °F 31.8 °F 30.1 in NW 7 mph 7 mph 54 % 0 in 418.0 W/m2 CLR
15:00 47.8 °F 31.1 °F 30.1 in NW 11.5 mph 11.5 mph 52 % 0 in 411.0 W/m2 CLR
15:05 47.8 °F 30 °F 30.1 in NW 11.5 mph 11.5 mph 50 % 0 in 404.0 W/m2 CLR
15:10 47.7 °F 30.4 °F 30.1 in NW 12.7 mph 12.7 mph 51 % 0 in 396.0 W/m2 CLR
15:15 47.8 °F 30.6 °F 30.1 in NW 9.2 mph 9.2 mph 51 % 0 in 390.0 W/m2 CLR
15:20 48 °F 30.7 °F 30.1 in NW 4.6 mph 5 mph 51 % 0 in 383.0 W/m2 CLR
15:25 48.2 °F 30.4 °F 30.1 in NW 8.1 mph 8.1 mph 50 % 0 in 364.0 W/m2 CLR
15:30 48.4 °F 30.9 °F 30.1 in NW 7 mph 7 mph 51 % 0 in 355.0 W/m2 CLR
15:35 48.6 °F 30.7 °F 30.1 in NW 9.2 mph 9.2 mph 50 % 0 in 348.0 W/m2 CLR
15:40 48.4 °F 29.7 °F 30.1 in NW 11.5 mph 11.5 mph 48 % 0 in 334.0 W/m2 CLR
15:45 48.2 °F 29.8 °F 30.1 in NW 6.9 mph 6.9 mph 49 % 0 in 329.0 W/m2 CLR
15:50 48.2 °F 29.5 °F 30.1 in NW 10.4 mph 10.4 mph 48 % 0 in 320.0 W/m2 CLR
15:55 48 °F 29.8 °F 30.1 in NW 12 mph 12 mph 49 % 0 in 309.0 W/m2 CLR
16:00 48 °F 28.8 °F 30.1 in NNW 12 mph 12 mph 47 % 0 in 295.0 W/m2 CLR
16:05 48 °F 29.3 °F 30.1 in NW 11.5 mph 11.5 mph 48 % 0 in 283.0 W/m2 CLR
16:10 48 °F 29.3 °F 30.1 in NW 11.5 mph 11.5 mph 48 % 0 in 272.0 W/m2 CLR
16:15 48.2 °F 28.9 °F 30.1 in NNW 11.5 mph 11.5 mph 47 % 0 in 257.0 W/m2 CLR
16:20 48.2 °F 29.5 °F 30.1 in NNW 8.1 mph 8.1 mph 48 % 0 in 241.0 W/m2 CLR
16:25 48.2 °F 28.4 °F 30.1 in NW 10.4 mph 10.4 mph 46 % 0 in 229.0 W/m2 CLR
16:30 48.4 °F 29.7 °F 30.1 in WNW 8.1 mph 8.1 mph 48 % 0 in 211.0 W/m2 CLR
16:35 48.6 °F 28.6 °F 30.1 in WNW 10.4 mph 10.4 mph 46 % 0 in 199.0 W/m2 CLR
16:40 48.2 °F 27.9 °F 30.1 in WNW 6.9 mph 6.9 mph 45 % 0 in 181.0 W/m2 CLR
16:45 48.4 °F 27.3 °F 30.1 in WNW 3.5 mph 3.5 mph 44 % 0 in 167.0 W/m2 CLR
16:50 48.4 °F 28 °F 30.1 in NW 3.5 mph 3.5 mph 45 % 0 in 149.0 W/m2 CLR
16:55 48.2 °F 27.9 °F 30.1 in NW 5.8 mph 5.8 mph 45 % 0 in 135.0 W/m2 CLR
17:00 48 °F 28.8 °F 30.1 in NW 1.2 mph 1.2 mph 47 % 0 in 118.0 W/m2 CLR
17:05 48.4 °F 27.3 °F 30.1 in Calm     44 % 0 in 104.0 W/m2 CLR
17:10 48.4 °F 28 °F 30.1 in Calm     45 % 0 in 91.0 W/m2 CLR
17:15 48.4 °F 28.6 °F 30.1 in Calm     46 % 0 in 77.0 W/m2 FEW
17:20 48.2 °F 27.3 °F 30.1 in Calm     44 % 0 in 58.0 W/m2 SCT
17:25 48 °F 27.7 °F 30.1 in Calm     45 % 0 in 53.0 W/m2 SCT
17:30 48 °F 28.2 °F 30.1 in Calm     46 % 0 in 40.0 W/m2 BKN
17:35 47.7 °F 27.3 °F 30.1 in Calm     45 % 0 in 32.0 W/m2 BKN
17:40 47.5 °F 28.8 °F 30.1 in Calm     48 % 0 in 23.0 W/m2 BKN
17:45 46.9 °F 28.8 °F 30.1 in Calm     49 % 0 in 16.0 W/m2 BKN
17:50 46.6 °F 27 °F 30.1 in Calm     46 % 0 in 14.0 W/m2 BKN
17:55 46.4 °F 28.2 °F 30.1 in Calm     49 % 0 in 11.0 W/m2 BKN
17:56 46.2 °F 28.2 °F 30.1 in Calm     49 % 0 in 11.0 W/m2 BKN
18:01 46 °F 27.9 °F 30.1 in Calm     49 % 0 in 9.0 W/m2 BKN
18:06 45.7 °F 28.6 °F 30.1 in Calm     51 % 0 in 5.0 W/m2 OVC
18:11 45.1 °F 28.6 °F 30.1 in Calm     52 % 0 in 0.0 W/m2 OVC
18:16 44.6 °F 28.6 °F 30.1 in Calm     53 % 0 in 0.0 W/m2 OVC
18:21 44.2 °F 28 °F 30.1 in Calm     53 % 0 in 0.0 W/m2 CLR
18:26 43.9 °F 29.1 °F 30.1 in Calm     56 % 0 in 0.0 W/m2 CLR
18:31 43 °F 29.7 °F 30.1 in Calm     59 % 0 in 0.0 W/m2 CLR
18:36 42.3 °F 29.7 °F 30.1 in Calm     61 % 0 in 0.0 W/m2 CLR
18:41 41.5 °F 29.5 °F 30.1 in Calm     62 % 0 in 0.0 W/m2 CLR
18:46 40.8 °F 29.7 °F 30.1 in Calm     64 % 0 in 0.0 W/m2 CLR
18:51 40.5 °F 30.4 °F 30.1 in Calm     67 % 0 in 0.0 W/m2 CLR
18:56 39.7 °F 30.6 °F 30.1 in Calm     69 % 0 in 0.0 W/m2 CLR
19:01 39.4 °F 30.4 °F 30.1 in Calm     70 % 0 in 0.0 W/m2 CLR
19:06 38.8 °F 30.4 °F 30.1 in Calm     71 % 0 in 0.0 W/m2 CLR
19:11 38.5 °F 29.8 °F 30.1 in Calm     71 % 0 in 0.0 W/m2 CLR
19:16 38.1 °F 29.8 °F 30.1 in Calm     72 % 0 in 0.0 W/m2 CLR
19:21 37.8 °F 29.8 °F 30.1 in Calm     73 % 0 in 0.0 W/m2 CLR
19:26 37 °F 29.5 °F 30.1 in Calm     74 % 0 in 0.0 W/m2 CLR
19:31 36.3 °F 29.1 °F 30.1 in Calm     75 % 0 in 0.0 W/m2 CLR
19:36 36.1 °F 29.3 °F 30.1 in Calm     76 % 0 in 0.0 W/m2 CLR
19:41 36 °F 29.5 °F 30.1 in Calm     77 % 0 in 0.0 W/m2 CLR
19:46 35.8 °F 29.3 °F 30.1 in Calm     77 % 0 in 0.0 W/m2 CLR
19:51 35.6 °F 29.5 °F 30.1 in Calm     78 % 0 in 0.0 W/m2 CLR
19:56 35.4 °F 29.1 °F 30.1 in Calm     78 % 0 in 0.0 W/m2 CLR
20:01 35.1 °F 29.1 °F 30.1 in Calm     79 % 0 in 0.0 W/m2 CLR
20:06 34.9 °F 28.8 °F 30.1 in Calm     78 % 0 in 0.0 W/m2 CLR
20:11 34.9 °F 28.6 °F 30.1 in Calm     78 % 0 in 0.0 W/m2 CLR
20:16 34.7 °F 28.9 °F 30.1 in Calm     79 % 0 in 0.0 W/m2 CLR
20:21 34.5 °F 28.8 °F 30.1 in Calm     79 % 0 in 0.0 W/m2 CLR
20:26 34.3 °F 28.6 °F 30.1 in Calm     79 % 0 in 0.0 W/m2 CLR
20:31 34.2 °F 28.4 °F 30.1 in Calm     79 % 0 in 0.0 W/m2 CLR
20:36 34.2 °F 28.4 °F 30.1 in Calm     79 % 0 in 0.0 W/m2 CLR
20:41 34.3 °F 28.6 °F 30.1 in Calm     79 % 0 in 0.0 W/m2 CLR
20:46 34.5 °F 28.2 °F 30.1 in Calm     78 % 0 in 0.0 W/m2 CLR
20:51 34.2 °F 28 °F 30.1 in Calm     78 % 0 in 0.0 W/m2 CLR
20:56 33.6 °F 27.9 °F 30.1 in Calm     79 % 0 in 0.0 W/m2 CLR
21:01 33.3 °F 27.7 °F 30.1 in Calm     80 % 0 in 0.0 W/m2 CLR
21:06 32.7 °F 27.9 °F 30.1 in Calm     82 % 0 in 0.0 W/m2 CLR
21:11 32.5 °F 27.7 °F 30.1 in Calm     82 % 0 in 0.0 W/m2 CLR
21:16 32.4 °F 27.5 °F 30.2 in Calm     82 % 0 in 0.0 W/m2 CLR
21:21 32.2 °F 27.3 °F 30.2 in Calm     82 % 0 in 0.0 W/m2 CLR
21:26 32.2 °F 27.7 °F 30.2 in Calm     83 % 0 in 0.0 W/m2 CLR
21:31 32 °F 27.3 °F 30.2 in Calm     83 % 0 in 0.0 W/m2 CLR
21:36 32.2 °F 27.7 °F 30.2 in Calm     83 % 0 in 0.0 W/m2 CLR
21:41 31.8 °F 27.3 °F 30.2 in Calm     83 % 0 in 0.0 W/m2 CLR
21:46 31.6 °F 27 °F 30.2 in Calm     83 % 0 in 0.0 W/m2 CLR
21:51 31.5 °F 27.1 °F 30.2 in Calm     84 % 0 in 0.0 W/m2 CLR
21:56 31.3 °F 27 °F 30.2 in Calm     84 % 0 in 0.0 W/m2 CLR
22:01 31.3 °F 27.3 °F 30.2 in Calm     85 % 0 in 0.0 W/m2 CLR
22:06 31.3 °F 27.1 °F 30.2 in Calm     85 % 0 in 0.0 W/m2 CLR
22:11 30.9 °F 27 °F 30.2 in Calm     85 % 0 in 0.0 W/m2 CLR
22:16 30.9 °F 27 °F 30.2 in Calm     85 % 0 in 0.0 W/m2 CLR
22:21 30.9 °F 27 °F 30.2 in Calm     85 % 0 in 0.0 W/m2 CLR
22:26 30.7 °F 26.8 °F 30.2 in Calm     85 % 0 in 0.0 W/m2 CLR
22:31 30.7 °F 27 °F 30.2 in Calm     86 % 0 in 0.0 W/m2 CLR
22:36 30.7 °F 27.1 °F 30.2 in Calm     86 % 0 in 0.0 W/m2 CLR
22:41 30.9 °F 27 °F 30.2 in Calm     85 % 0 in 0.0 W/m2 CLR
22:46 30.7 °F 26.8 °F 30.2 in Calm     85 % 0 in 0.0 W/m2 CLR
22:51 30.6 °F 26.8 °F 30.2 in Calm     86 % 0 in 0.0 W/m2 CLR
22:52 30.6 °F 26.8 °F 30.2 in Calm     86 % 0 in 0.0 W/m2 CLR
22:57 30.4 °F 26.8 °F 30.2 in Calm     86 % 0 in 0.0 W/m2 CLR
23:02 30.4 °F 26.6 °F 30.2 in Calm     86 % 0 in 0.0 W/m2 CLR
23:07 30 °F 26.4 °F 30.2 in Calm     86 % 0 in 0.0 W/m2 CLR
23:12 30 °F 26.6 °F 30.2 in Calm     87 % 0 in 0.0 W/m2 CLR
23:17 29.8 °F 26.4 °F 30.2 in Calm     87 % 0 in 0.0 W/m2 CLR
23:22 29.7 °F 26.2 °F 30.2 in Calm     87 % 0 in 0.0 W/m2 CLR
23:27 29.7 °F 26.2 °F 30.2 in Calm     87 % 0 in 0.0 W/m2 CLR
23:32 29.5 °F 26.1 °F 30.2 in Calm     87 % 0 in 0.0 W/m2 CLR
23:37 29.5 °F 26.4 °F 30.2 in Calm     88 % 0 in 0.0 W/m2 CLR
23:42 29.3 °F 26.2 °F 30.2 in Calm     88 % 0 in 0.0 W/m2 CLR
23:47 29.1 °F 26.1 °F 30.2 in Calm     88 % 0 in 0.0 W/m2 CLR
23:52 29.1 °F 26.1 °F 30.2 in Calm     88 % 0 in 0.0 W/m2 CLR
23:57 29.1 °F 26.1 °F 30.2 in Calm     88 % 0 in 0.0 W/m2 CLR
Lo Temps de Massalio
Compliments of Weather Underground - 1.25 mb